Time;durP1;ratioP1;P1;durP2;ratioP2;P2;SDS_P1;SDS_P2;PMS_P1;PMS_P2;Temp;Humidity;BMP_temperature;BMP_pressure;BME280_temperature;BME280_humidity;BME280_pressure;Samples;Min_cycle;Max_cycle;Signal;HPM_P1;HPM_P2
2022/09/01 00:02:28;;;;;;;1.52;1.17;;;15.00;99.90;;;;;;4999638;28;20171;-77
2022/09/01 00:04:56;;;;;;;2.10;1.10;;;14.90;99.90;;;;;;5000394;28;20041;-79
2022/09/01 00:07:22;;;;;;;1.50;1.30;;;14.90;99.90;;;;;;5016631;28;20436;-78
2022/09/01 00:09:47;;;;;;;1.10;1.00;;;14.80;99.90;;;;;;4999756;28;20045;-75
2022/09/01 00:12:13;;;;;;;1.05;0.93;;;14.80;99.90;;;;;;5016059;28;20041;-77
2022/09/01 00:14:40;;;;;;;1.30;0.90;;;14.80;99.90;;;;;;5015593;28;20046;-77
2022/09/01 00:17:08;;;;;;;1.30;1.00;;;14.80;99.90;;;;;;4999622;28;20041;-75
2022/09/01 00:19:35;;;;;;;1.42;1.02;;;14.80;99.90;;;;;;5015595;28;20038;-75
2022/09/01 00:22:01;;;;;;;3.10;1.00;;;14.70;99.90;;;;;;5016161;28;20049;-77
2022/09/01 00:24:27;;;;;;;1.83;0.90;;;14.70;99.90;;;;;;5016207;28;20048;-77
2022/09/01 00:26:54;;;;;;;3.67;1.85;;;14.70;99.90;;;;;;5015260;28;20409;-75
2022/09/01 00:29:20;;;;;;;1.38;1.05;;;14.60;99.90;;;;;;5015699;28;20072;-75
2022/09/01 00:31:47;;;;;;;1.10;0.95;;;14.60;99.90;;;;;;5015282;28;20111;-75
2022/09/01 00:34:12;;;;;;;1.60;0.90;;;14.60;99.90;;;;;;4999435;28;20044;-76
2022/09/01 00:36:38;;;;;;;2.08;1.20;;;14.50;99.90;;;;;;5015459;28;20124;-77
2022/09/01 00:39:05;;;;;;;1.73;0.95;;;14.50;99.90;;;;;;4998891;28;20045;-76
2022/09/01 00:41:34;;;;;;;1.17;1.00;;;14.50;99.90;;;;;;4999349;28;20103;-75
2022/09/01 00:44:04;;;;;;;1.60;1.00;;;14.60;99.90;;;;;;5015275;28;20133;-76
2022/09/01 00:46:35;;;;;;;1.48;1.00;;;14.50;99.90;;;;;;5015484;28;20072;-75
2022/09/01 00:49:09;;;;;;;1.63;1.00;;;14.60;99.90;;;;;;4999116;28;20046;-73
2022/09/01 00:51:37;;;;;;;1.65;1.10;;;14.50;99.90;;;;;;4998732;28;20037;-74
2022/09/01 00:54:06;;;;;;;2.72;0.93;;;14.40;99.90;;;;;;5015174;28;20103;-77
2022/09/01 00:56:36;;;;;;;2.05;0.90;;;14.40;99.90;;;;;;5015008;28;20045;-75
2022/09/01 00:59:05;;;;;;;1.10;1.00;;;14.40;99.90;;;;;;5015349;28;20045;-76
2022/09/01 01:01:30;;;;;;;2.30;1.23;;;14.30;99.90;;;;;;5014824;28;20049;-75
2022/09/01 01:04:00;;;;;;;1.85;1.08;;;14.30;99.90;;;;;;5014790;28;20069;-75
2022/09/01 01:06:28;;;;;;;1.50;1.15;;;14.30;99.90;;;;;;4999699;28;20471;-75
2022/09/01 01:08:58;;;;;;;1.10;1.00;;;14.20;99.90;;;;;;5014585;28;20049;-76
2022/09/01 01:11:30;;;;;;;1.95;1.10;;;14.20;99.90;;;;;;5015441;28;20056;-76
2022/09/01 01:14:14;;;;;;;1.00;0.90;;;14.20;99.90;;;;;;4998419;28;20794;-75
2022/09/01 01:16:45;;;;;;;1.77;1.10;;;14.20;99.90;;;;;;5014234;28;20077;-74
2022/09/01 01:24:57;;;;;;;1.10;1.00;;;14.20;99.90;;;;;;5014286;28;20044;-75
2022/09/01 01:27:23;;;;;;;1.80;1.38;;;14.10;99.90;;;;;;5014401;28;20057;-76
2022/09/01 01:29:52;;;;;;;1.55;1.00;;;14.10;99.90;;;;;;5014071;28;20477;-76
2022/09/01 01:32:18;;;;;;;2.00;1.30;;;14.10;99.90;;;;;;4998452;28;20115;-74
2022/09/01 01:34:45;;;;;;;1.10;0.93;;;14.10;99.90;;;;;;5014250;28;20041;-74
2022/09/01 01:37:16;;;;;;;2.08;1.20;;;14.10;99.90;;;;;;4981997;28;20041;-75
2022/09/01 01:39:43;;;;;;;1.30;1.15;;;14.10;99.90;;;;;;4998247;28;20038;-76
2022/09/01 01:42:11;;;;;;;1.35;1.02;;;14.10;99.90;;;;;;4998337;28;20080;-75
2022/09/01 01:44:37;;;;;;;1.60;1.25;;;14.00;99.90;;;;;;5013850;28;20042;-77
2022/09/01 01:47:07;;;;;;;2.80;1.05;;;14.10;99.90;;;;;;5014273;28;20539;-76
2022/09/01 01:49:33;;;;;;;2.33;1.02;;;14.00;99.90;;;;;;4998382;28;20061;-76
2022/09/01 01:52:00;;;;;;;1.40;1.30;;;14.10;99.90;;;;;;5013918;28;20041;-76
2022/09/01 01:54:30;;;;;;;2.53;1.30;;;14.00;99.90;;;;;;4998099;28;20041;-77
2022/09/01 01:56:57;;;;;;;2.50;1.33;;;14.10;99.90;;;;;;5013429;28;20055;-76
2022/09/01 01:59:23;;;;;;;2.20;1.20;;;14.10;99.90;;;;;;5014360;28;20037;-75
2022/09/01 02:01:50;;;;;;;3.33;1.30;;;14.20;99.90;;;;;;4997501;28;20045;-76
2022/09/01 02:04:18;;;;;;;1.20;1.00;;;14.20;99.90;;;;;;5014056;28;20080;-74
2022/09/01 02:06:46;;;;;;;1.13;1.02;;;14.20;99.90;;;;;;4997508;28;20083;-75
2022/09/01 02:09:14;;;;;;;1.90;1.30;;;14.20;99.90;;;;;;5013890;28;20056;-75
2022/09/01 02:11:40;;;;;;;1.35;1.25;;;14.20;99.90;;;;;;4997071;28;20052;-78
2022/09/01 02:14:07;;;;;;;1.33;0.98;;;14.30;99.90;;;;;;5013177;28;20037;-77
2022/09/01 02:16:34;;;;;;;1.23;1.13;;;14.20;99.90;;;;;;4997309;28;20489;-75
2022/09/01 02:19:01;;;;;;;2.13;1.20;;;14.20;99.90;;;;;;4997254;28;20049;-76
2022/09/01 02:21:27;;;;;;;2.70;1.75;;;14.20;99.90;;;;;;4997830;28;20393;-74
2022/09/01 02:24:01;;;;;;;1.63;1.30;;;14.20;99.90;;;;;;4997356;28;20044;-77
2022/09/01 02:26:38;;;;;;;1.40;1.30;;;14.20;99.90;;;;;;5013747;28;20505;-75
2022/09/01 02:29:19;;;;;;;1.55;1.30;;;14.20;99.90;;;;;;5013344;28;20049;-75
2022/09/01 02:31:48;;;;;;;1.80;1.20;;;14.20;99.90;;;;;;4997410;28;20428;-75
2022/09/01 02:34:14;;;;;;;1.50;1.15;;;14.20;99.90;;;;;;5014002;28;20124;-75
2022/09/01 02:36:48;;;;;;;1.23;1.13;;;14.20;99.90;;;;;;4996880;28;20045;-77
2022/09/01 02:39:26;;;;;;;1.98;1.15;;;14.20;99.90;;;;;;4997588;28;20142;-75
2022/09/01 02:41:53;;;;;;;1.52;1.10;;;14.20;99.90;;;;;;4997079;28;20037;-77
2022/09/01 02:44:21;;;;;;;1.90;1.27;;;14.30;99.90;;;;;;5013603;28;20038;-77
2022/09/01 02:46:47;;;;;;;1.63;1.25;;;14.20;99.90;;;;;;4980885;28;20061;-77
2022/09/01 02:49:19;;;;;;;2.78;1.45;;;14.20;99.90;;;;;;4997177;28;20041;-76
2022/09/01 02:51:52;;;;;;;2.40;1.20;;;14.20;99.90;;;;;;4997012;28;20124;-77
2022/09/01 02:54:21;;;;;;;1.48;1.17;;;14.20;99.90;;;;;;4997153;28;20049;-76
2022/09/01 02:56:48;;;;;;;1.27;1.17;;;14.10;99.90;;;;;;5013464;28;20072;-75
2022/09/01 02:59:20;;;;;;;1.48;1.17;;;14.10;99.90;;;;;;4997551;28;20731;-76
2022/09/01 03:01:47;;;;;;;1.52;1.17;;;14.00;99.90;;;;;;4996745;28;20219;-76
2022/09/01 03:04:14;;;;;;;1.70;1.20;;;14.00;99.90;;;;;;5013320;28;20044;-74
2022/09/01 03:06:40;;;;;;;3.58;0.90;;;14.00;99.90;;;;;;5012875;28;20038;-76
2022/09/01 03:09:09;;;;;;;2.53;1.60;;;14.00;99.90;;;;;;4996665;28;20559;-74
2022/09/01 03:11:38;;;;;;;1.40;1.20;;;13.90;99.90;;;;;;5013411;28;20042;-74
2022/09/01 03:14:05;;;;;;;1.80;1.50;;;14.00;99.90;;;;;;4996569;28;20045;-75
2022/09/01 03:16:31;;;;;;;1.90;1.45;;;14.00;99.90;;;;;;4996705;28;20136;-77
2022/09/01 03:18:58;;;;;;;1.88;1.30;;;14.10;99.90;;;;;;5012698;28;20045;-76
2022/09/01 03:21:24;;;;;;;1.67;1.30;;;14.10;99.90;;;;;;5013549;28;20072;-78
2022/09/01 03:23:51;;;;;;;1.77;1.50;;;14.10;99.90;;;;;;4996928;28;20131;-76
2022/09/01 03:26:20;;;;;;;1.75;1.33;;;14.10;99.90;;;;;;4983727;28;20064;-75
2022/09/01 03:28:48;;;;;;;2.05;1.17;;;14.20;99.90;;;;;;5016436;28;20140;-74
2022/09/01 03:31:14;;;;;;;1.60;1.33;;;14.10;99.90;;;;;;5000696;28;20049;-78
2022/09/01 03:33:41;;;;;;;1.67;1.27;;;14.10;99.90;;;;;;5016915;28;20045;-76
2022/09/01 03:36:07;;;;;;;1.98;1.30;;;14.10;99.90;;;;;;5016410;28;20045;-77
2022/09/01 03:38:34;;;;;;;1.95;1.55;;;14.10;99.90;;;;;;4984503;28;20045;-77
2022/09/01 03:41:04;;;;;;;3.80;1.60;;;14.20;99.90;;;;;;5016683;28;20120;-76
2022/09/01 03:43:33;;;;;;;2.03;1.50;;;14.20;99.90;;;;;;4983999;28;20037;-77
2022/09/01 03:45:59;;;;;;;1.85;1.48;;;14.20;99.90;;;;;;4999940;28;20370;-75
2022/09/01 03:48:30;;;;;;;1.75;1.30;;;14.10;99.90;;;;;;5016839;28;20501;-77
2022/09/01 03:51:01;;;;;;;2.13;1.23;;;14.10;99.90;;;;;;5016374;28;20048;-77
2022/09/01 03:53:30;;;;;;;1.52;1.42;;;14.10;99.90;;;;;;5016234;28;20100;-74
2022/09/01 03:55:56;;;;;;;3.42;1.30;;;14.00;99.90;;;;;;5015893;28;20133;-75
2022/09/01 03:58:23;;;;;;;2.45;1.50;;;14.10;99.90;;;;;;5000089;28;20045;-74
2022/09/01 04:00:54;;;;;;;1.52;1.40;;;14.00;99.90;;;;;;4999836;28;20041;-76
2022/09/01 04:03:24;;;;;;;2.33;1.48;;;14.00;99.90;;;;;;5000104;28;20038;-74
2022/09/01 04:05:52;;;;;;;2.10;1.50;;;14.00;99.90;;;;;;4999281;28;20037;-75
2022/09/01 04:08:19;;;;;;;1.90;1.70;;;13.90;99.90;;;;;;5016143;28;20763;-75
2022/09/01 04:10:49;;;;;;;2.42;1.55;;;13.90;99.90;;;;;;5016078;28;20038;-74
2022/09/01 04:13:29;;;;;;;1.50;1.40;;;13.90;99.90;;;;;;4999730;28;20053;-74
2022/09/01 04:15:56;;;;;;;2.58;1.45;;;13.80;99.90;;;;;;5015799;28;20045;-74
2022/09/01 04:18:22;;;;;;;2.13;1.60;;;13.80;99.90;;;;;;5015642;28;20363;-74
2022/09/01 04:20:56;;;;;;;1.60;1.50;;;13.80;99.90;;;;;;5015920;28;20048;-74
2022/09/01 04:23:35;;;;;;;1.80;1.57;;;13.80;99.90;;;;;;4999587;28;20034;-74
2022/09/01 04:26:12;;;;;;;1.70;1.60;;;13.70;99.90;;;;;;5015717;28;20288;-75
2022/09/01 04:28:57;;;;;;;2.75;1.42;;;13.70;99.90;;;;;;4999851;28;20049;-75
2022/09/01 04:31:23;;;;;;;3.90;1.55;;;13.70;99.90;;;;;;5015679;28;20064;-76
2022/09/01 04:33:51;;;;;;;1.98;1.70;;;13.60;99.90;;;;;;4983511;28;20049;-74
2022/09/01 04:36:26;;;;;;;1.98;1.77;;;13.60;99.90;;;;;;4998242;28;20049;-76
2022/09/01 04:38:57;;;;;;;;;;;13.50;99.90;;;;;;5015877;28;20048;-77
2022/09/01 04:41:25;;;;;;;2.42;1.80;;;13.60;99.90;;;;;;5015155;28;19960;-77
2022/09/01 04:43:55;;;;;;;2.03;1.77;;;13.50;99.90;;;;;;5014456;28;20034;-74
2022/09/01 04:46:21;;;;;;;4.47;2.00;;;13.50;99.90;;;;;;5014967;28;20038;-75
2022/09/01 04:48:47;;;;;;;1.67;1.58;;;13.50;99.90;;;;;;4982421;28;20056;-77
2022/09/01 04:51:14;;;;;;;3.17;2.55;;;13.50;99.90;;;;;;4998421;28;20060;-76
2022/09/01 04:53:47;;;;;;;1.85;1.75;;;13.50;99.90;;;;;;5015074;28;20088;-76
2022/09/01 04:56:18;;;;;;;2.95;2.40;;;13.50;99.90;;;;;;5014530;28;20433;-77
2022/09/01 04:58:45;;;;;;;2.05;1.67;;;13.40;99.90;;;;;;4998584;28;20037;-75
2022/09/01 05:01:23;;;;;;;2.08;1.80;;;13.40;99.90;;;;;;4998560;28;20489;-77
2022/09/01 05:03:55;;;;;;;2.30;1.90;;;13.50;99.90;;;;;;4998619;28;20037;-77
2022/09/01 05:06:21;;;;;;;2.88;2.08;;;13.40;99.90;;;;;;4982992;28;20052;-75
2022/09/01 05:08:48;;;;;;;3.65;2.10;;;13.50;99.90;;;;;;4998051;28;20060;-77
2022/09/01 05:11:18;;;;;;;3.38;2.10;;;13.50;99.90;;;;;;5014681;28;20049;-75
2022/09/01 05:13:47;;;;;;;2.20;2.00;;;13.40;99.90;;;;;;4998858;28;20076;-77
2022/09/01 05:16:18;;;;;;;2.28;1.98;;;13.50;99.90;;;;;;5014090;28;20049;-77
2022/09/01 05:18:46;;;;;;;2.10;1.70;;;13.50;99.90;;;;;;4998156;28;20045;-75
2022/09/01 05:21:15;;;;;;;2.90;1.90;;;13.50;99.90;;;;;;4997609;28;20033;-77
2022/09/01 05:23:42;;;;;;;2.97;2.15;;;13.50;99.90;;;;;;4997234;28;20044;-74
2022/09/01 05:26:22;;;;;;;2.88;2.10;;;13.50;99.90;;;;;;5012664;28;20053;-77
2022/09/01 05:28:54;;;;;;;2.05;1.88;;;13.50;99.90;;;;;;5014508;28;20064;-77
2022/09/01 05:31:21;;;;;;;4.10;2.47;;;13.60;99.90;;;;;;4997740;28;20041;-78
2022/09/01 05:33:49;;;;;;;4.53;2.45;;;13.60;99.90;;;;;;4997622;28;20114;-75
2022/09/01 05:36:21;;;;;;;4.35;3.08;;;13.70;99.90;;;;;;4997381;28;20489;-77
2022/09/01 05:38:48;;;;;;;4.32;3.58;;;13.80;99.90;;;;;;4997721;28;20046;-76
2022/09/01 05:41:15;;;;;;;4.25;3.47;;;13.90;99.90;;;;;;5013553;28;20071;-77
2022/09/01 05:43:47;;;;;;;3.97;3.35;;;13.90;99.90;;;;;;4997411;28;20041;-76
2022/09/01 05:46:17;;;;;;;3.55;3.22;;;14.00;99.90;;;;;;4997282;28;20029;-76
2022/09/01 05:48:49;;;;;;;3.70;3.40;;;13.90;99.90;;;;;;5013801;28;20224;-77
2022/09/01 05:51:18;;;;;;;3.70;2.50;;;14.00;99.90;;;;;;5013695;28;20045;-77
2022/09/01 05:53:45;;;;;;;3.50;2.60;;;14.10;99.90;;;;;;5013782;28;20041;-76
2022/09/01 05:56:12;;;;;;;4.55;2.80;;;14.10;99.90;;;;;;5013403;28;20053;-77
2022/09/01 05:58:39;;;;;;;4.18;2.40;;;14.10;99.90;;;;;;4997089;28;20498;-75
2022/09/01 06:01:06;;;;;;;2.40;2.20;;;14.10;99.90;;;;;;4997108;28;20041;-76
2022/09/01 06:03:32;;;;;;;3.72;2.28;;;14.10;99.90;;;;;;5013919;28;20429;-75
2022/09/01 06:06:08;;;;;;;2.28;2.08;;;14.10;99.90;;;;;;4996765;28;20061;-77
2022/09/01 06:08:35;;;;;;;3.15;2.28;;;14.10;99.90;;;;;;4997273;28;20658;-76
2022/09/01 06:11:02;;;;;;;2.97;2.55;;;14.20;99.90;;;;;;4997228;28;20054;-76
2022/09/01 06:13:28;;;;;;;2.90;2.40;;;14.20;99.90;;;;;;4997291;28;20041;-77
2022/09/01 06:15:57;;;;;;;2.90;2.28;;;14.20;99.90;;;;;;5030297;28;20477;-78
2022/09/01 06:18:23;;;;;;;2.63;2.15;;;14.30;99.90;;;;;;5050017;28;20080;-77
2022/09/01 06:20:49;;;;;;;3.67;2.20;;;14.30;99.90;;;;;;5033274;28;20529;-76
2022/09/01 06:23:16;;;;;;;3.13;2.67;;;14.40;99.90;;;;;;5016421;28;20056;-77
2022/09/01 06:25:45;;;;;;;4.32;2.53;;;14.40;99.90;;;;;;5033339;28;20397;-78
2022/09/01 06:28:21;;;;;;;4.30;2.38;;;14.50;99.90;;;;;;5033128;28;20397;-78
2022/09/01 06:30:49;;;;;;;4.57;2.35;;;14.70;99.90;;;;;;5034001;28;20409;-76
2022/09/01 06:33:15;;;;;;;3.25;2.00;;;14.90;99.90;;;;;;5016916;28;20044;-75
2022/09/01 06:35:43;;;;;;;5.55;2.30;;;15.00;99.90;;;;;;5033247;28;20456;-74
2022/09/01 06:38:10;;;;;;;2.20;2.00;;;15.10;99.90;;;;;;5032957;28;20041;-75
2022/09/01 06:40:39;;;;;;;2.90;2.10;;;15.20;99.90;;;;;;5033137;28;20140;-74
2022/09/01 06:43:06;;;;;;;2.75;2.10;;;15.30;99.90;;;;;;5049298;28;20041;-75
2022/09/01 06:45:39;;;;;;;3.10;1.77;;;15.30;99.90;;;;;;5032535;28;20040;-74
2022/09/01 06:48:05;;;;;;;4.50;1.90;;;15.40;99.90;;;;;;5032687;28;20040;-74
2022/09/01 06:50:31;;;;;;;4.75;2.10;;;15.40;99.90;;;;;;5049496;28;20479;-75
2022/09/01 06:53:12;;;;;;;2.53;1.88;;;15.40;99.90;;;;;;5032894;28;20095;-75
2022/09/01 06:55:40;;;;;;;1.90;1.63;;;15.40;99.90;;;;;;5049228;28;20099;-75
2022/09/01 06:58:08;;;;;;;4.68;2.13;;;15.40;99.90;;;;;;5049121;28;20056;-76
2022/09/01 07:00:40;;;;;;;2.15;1.95;;;15.50;99.90;;;;;;5052277;28;20044;-76
2022/09/01 07:03:08;;;;;;;1.90;1.75;;;15.60;99.90;;;;;;5018521;28;20044;-75
2022/09/01 07:05:37;;;;;;;4.55;2.00;;;15.70;99.90;;;;;;5000327;28;20045;-75
2022/09/01 07:08:07;;;;;;;2.53;1.70;;;15.80;99.90;;;;;;5016899;28;20370;-75
2022/09/01 07:10:32;;;;;;;2.25;1.50;;;15.90;99.90;;;;;;5000398;28;20042;-75
2022/09/01 07:13:00;;;;;;;1.70;1.60;;;16.00;99.90;;;;;;5016982;28;20033;-74
2022/09/01 07:15:26;;;;;;;2.75;1.73;;;16.10;99.90;;;;;;5000493;28;20520;-76
2022/09/01 07:17:54;;;;;;;1.80;1.52;;;16.10;99.90;;;;;;4983959;28;20046;-75
2022/09/01 07:20:24;;;;;;;5.72;1.63;;;16.20;99.90;;;;;;5016548;28;20048;-75
2022/09/01 07:22:50;;;;;;;2.33;1.60;;;16.30;99.90;;;;;;5000897;28;20073;-75
2022/09/01 07:25:17;;;;;;;2.65;1.77;;;16.40;99.90;;;;;;4983768;28;20034;-76
2022/09/01 07:27:49;;;;;;;3.58;1.90;;;16.30;99.90;;;;;;5000165;28;20053;-75
2022/09/01 07:30:21;;;;;;;2.50;2.28;;;16.40;99.90;;;;;;5001023;28;20440;-75
2022/09/01 07:32:49;;;;;;;2.65;1.67;;;16.50;99.90;;;;;;5016576;28;20107;-75
2022/09/01 07:35:19;;;;;;;4.80;1.50;;;16.60;99.90;;;;;;5016050;28;20496;-75
2022/09/01 07:37:47;;;;;;;2.92;1.52;;;16.70;99.90;;;;;;5016464;28;20049;-76
2022/09/01 07:40:19;;;;;;;1.80;1.38;;;16.80;99.90;;;;;;5016367;28;20037;-75
2022/09/01 07:42:53;;;;;;;1.98;1.42;;;16.90;99.90;;;;;;5000851;28;20038;-75
2022/09/01 07:45:18;;;;;;;2.58;1.50;;;16.90;99.90;;;;;;5015588;28;20049;-75
2022/09/01 07:47:44;;;;;;;2.63;1.40;;;17.10;99.90;;;;;;5000141;28;20041;-75
2022/09/01 07:50:14;;;;;;;2.10;1.45;;;17.20;99.90;;;;;;4999513;28;20034;-74
2022/09/01 07:52:48;;;;;;;2.50;1.33;;;17.10;99.90;;;;;;5016362;28;20135;-74
2022/09/01 07:55:15;;;;;;;2.83;1.55;;;17.10;99.90;;;;;;4999110;28;20111;-73
2022/09/01 07:57:44;;;;;;;2.42;1.50;;;17.10;99.90;;;;;;4999911;28;20363;-76
2022/09/01 08:00:14;;;;;;;3.15;1.40;;;17.10;99.90;;;;;;5007640;28;20037;-74
2022/09/01 08:02:43;;;;;;;3.42;1.83;;;17.10;99.90;;;;;;5035317;28;20064;-73
2022/09/01 08:05:14;;;;;;;1.92;1.60;;;17.10;99.90;;;;;;5004547;28;20033;-74
2022/09/01 08:07:41;;;;;;;2.00;1.40;;;17.20;99.90;;;;;;5031779;28;20037;-73
2022/09/01 08:10:07;;;;;;;2.40;1.67;;;17.40;99.90;;;;;;5030831;28;20605;-73
2022/09/01 08:12:34;;;;;;;1.42;1.23;;;17.50;99.90;;;;;;5014209;28;20049;-74
2022/09/01 08:15:05;;;;;;;2.38;1.42;;;17.70;99.90;;;;;;5015323;28;20051;-73
2022/09/01 08:17:31;;;;;;;1.85;1.38;;;17.80;99.90;;;;;;5014713;28;20049;-73
2022/09/01 08:19:57;;;;;;;2.22;1.30;;;17.80;99.90;;;;;;4999209;28;20122;-71
2022/09/01 08:22:24;;;;;;;2.08;1.38;;;17.90;99.90;;;;;;5014801;28;20390;-72
2022/09/01 08:24:51;;;;;;;2.78;1.50;;;17.80;99.90;;;;;;5015426;28;20119;-73
2022/09/01 08:27:18;;;;;;;1.52;1.40;;;17.70;99.90;;;;;;4982267;28;20062;-74
2022/09/01 08:29:43;;;;;;;2.38;1.33;;;17.90;99.90;;;;;;5015280;28;20049;-72
2022/09/01 08:32:10;;;;;;;2.88;1.50;;;18.00;99.90;;;;;;4998107;28;20045;-74
2022/09/01 08:34:37;;;;;;;1.30;1.20;;;18.10;99.90;;;;;;4999081;28;20125;-73
2022/09/01 08:37:04;;;;;;;2.42;1.40;;;18.10;99.90;;;;;;5022008;28;20024;-74
2022/09/01 08:39:29;;;;;;;3.13;1.55;;;18.20;99.90;;;;;;5034133;28;20048;-73
2022/09/01 08:42:13;;;;;;;3.00;1.30;;;18.30;99.90;;;;;;5035072;28;20040;-72
2022/09/01 08:44:57;;;;;;;3.10;1.20;;;18.40;99.90;;;;;;5032924;28;20392;-72
2022/09/01 08:47:23;;;;;;;2.75;1.30;;;18.60;99.90;;;;;;5032448;28;20061;-73
2022/09/01 08:49:49;;;;;;;5.82;1.50;;;18.70;99.90;;;;;;5033266;28;20102;-73
2022/09/01 08:52:30;;;;;;;1.88;1.50;;;18.70;99.90;;;;;;5032584;28;20512;-73
2022/09/01 08:55:13;;;;;;;1.60;1.20;;;18.70;99.90;;;;;;5032861;28;20052;-73
2022/09/01 08:57:42;;;;;;;4.28;1.40;;;18.90;99.90;;;;;;5016578;28;20071;-73
2022/09/01 09:00:12;;;;;;;2.03;1.20;;;19.00;99.90;;;;;;5027662;28;20029;-73
2022/09/01 09:03:28;;;;;;;3.78;1.63;;;19.10;99.90;;;;;;4999264;28;20498;-74
2022/09/01 09:06:15;;;;;;;2.15;1.20;;;19.10;99.90;;;;;;4959025;28;20045;-73
2022/09/01 09:09:05;;;;;;;9.75;1.85;;;19.30;99.90;;;;;;4954360;28;20054;-71
2022/09/01 09:12:01;;;;;;;2.70;1.83;;;19.40;99.90;;;;;;4994986;28;20060;-72
2022/09/01 09:14:49;;;;;;;1.48;1.20;;;19.60;99.90;;;;;;5009131;28;20096;-75
2022/09/01 09:17:18;;;;;;;2.10;1.20;;;19.50;99.90;;;;;;5030973;28;20072;-76
2022/09/01 09:19:45;;;;;;;3.00;1.25;;;19.80;99.90;;;;;;5016508;28;20123;-75
2022/09/01 09:22:16;;;;;;;3.10;1.30;;;19.90;99.90;;;;;;5000038;28;20029;-74
2022/09/01 09:24:54;;;;;;;1.45;1.00;;;19.90;99.90;;;;;;5033578;28;20041;-76
2022/09/01 09:27:32;;;;;;;1.60;1.27;;;20.10;99.90;;;;;;5016303;28;20127;-74
2022/09/01 09:30:05;;;;;;;2.05;1.17;;;20.20;99.90;;;;;;5033927;28;20427;-75
2022/09/01 09:32:55;;;;;;;1.77;1.02;;;20.30;99.90;;;;;;5033160;28;20428;-76
2022/09/01 09:35:36;;;;;;;3.65;1.65;;;20.30;99.90;;;;;;5032791;28;20044;-76
2022/09/01 09:38:27;;;;;;;1.85;0.90;;;20.60;99.90;;;;;;5033282;28;20059;-76
2022/09/01 09:41:17;;;;;;;5.18;1.70;;;20.90;99.90;;;;;;5016913;28;20041;-74
2022/09/01 09:43:57;;;;;;;1.65;0.90;;;20.60;99.90;;;;;;5033372;28;20123;-75
2022/09/01 09:46:32;;;;;;;2.30;1.05;;;21.00;99.90;;;;;;5033156;28;20480;-77
2022/09/01 09:49:25;;;;;;;1.20;1.00;;;21.20;99.90;;;;;;5032967;28;20052;-76
2022/09/01 09:51:54;;;;;;;1.98;1.05;;;21.20;99.90;;;;;;5024923;28;20127;-74
2022/09/01 09:54:31;;;;;;;1.20;1.10;;;21.40;99.90;;;;;;5010839;28;20369;-77
2022/09/01 09:57:15;;;;;;;1.10;1.00;;;21.50;99.90;;;;;;4997139;28;20469;-77
2022/09/01 09:59:52;;;;;;;5.72;1.00;;;21.90;99.90;;;;;;4996589;28;20167;-78
2022/09/01 10:02:30;;;;;;;1.80;1.30;;;22.00;99.90;;;;;;5013148;28;20038;-77
2022/09/01 10:04:58;;;;;;;2.78;1.17;;;22.10;99.90;;;;;;5013088;28;20044;-78
2022/09/01 10:07:35;;;;;;;1.67;1.20;;;22.40;99.90;;;;;;4996726;28;20110;-77
2022/09/01 10:10:23;;;;;;;1.70;1.15;;;22.50;99.90;;;;;;5013632;28;20103;-76
2022/09/01 10:12:48;;;;;;;1.55;1.10;;;22.70;99.90;;;;;;4996356;28;20049;-75
2022/09/01 10:15:19;;;;;;;1.75;1.30;;;22.40;99.90;;;;;;4980309;28;20041;-76
2022/09/01 10:17:47;;;;;;;2.03;1.17;;;22.70;99.90;;;;;;4996276;28;20041;-76
2022/09/01 10:20:20;;;;;;;2.17;1.00;;;22.50;99.90;;;;;;5012774;28;20064;-75
2022/09/01 10:22:47;;;;;;;1.40;1.00;;;22.70;99.90;;;;;;5013009;28;20424;-76
2022/09/01 10:25:20;;;;;;;1.92;1.10;;;23.00;99.90;;;;;;4995872;28;20037;-76
2022/09/01 10:27:53;;;;;;;1.38;0.85;;;22.80;99.90;;;;;;4995766;28;20050;-77
2022/09/01 10:30:20;;;;;;;2.55;1.33;;;23.00;99.90;;;;;;4995771;28;20135;-76
2022/09/01 10:32:49;;;;;;;1.13;0.90;;;23.10;99.90;;;;;;5013056;28;20454;-76
2022/09/01 10:35:25;;;;;;;1.95;0.98;;;23.10;99.90;;;;;;5011901;28;20077;-78
2022/09/01 10:37:52;;;;;;;1.17;1.00;;;22.50;99.90;;;;;;5012793;28;20070;-77
2022/09/01 10:40:39;;;;;;;3.63;1.10;;;22.60;99.90;;;;;;4995751;28;20072;-77
2022/09/01 10:43:26;;;;;;;1.73;0.90;;;23.10;99.90;;;;;;5012611;28;20041;-76
2022/09/01 10:45:52;;;;;;;2.55;0.80;;;22.90;99.90;;;;;;4996204;28;20042;-78
2022/09/01 10:48:22;;;;;;;1.00;0.75;;;23.30;99.90;;;;;;4996137;28;20064;-78
2022/09/01 10:50:50;;;;;;;1.17;0.90;;;22.90;99.90;;;;;;5012435;28;20961;-78
2022/09/01 10:53:34;;;;;;;2.80;0.70;;;23.10;99.90;;;;;;4996305;28;20126;-79
2022/09/01 10:56:09;;;;;;;1.83;1.00;;;23.60;95.50;;;;;;5031544;28;20048;-76
2022/09/01 10:58:44;;;;;;;1.48;0.80;;;22.80;92.90;;;;;;5031930;28;20045;-78
2022/09/01 11:01:10;;;;;;;1.00;0.90;;;22.50;93.20;;;;;;5015257;28;20072;-76
2022/09/01 11:03:55;;;;;;;1.73;0.80;;;22.10;93.60;;;;;;5015173;28;20084;-78
2022/09/01 11:06:31;;;;;;;1.00;0.80;;;21.80;90.20;;;;;;5015354;28;20389;-75
2022/09/01 11:09:04;;;;;;;0.90;0.80;;;21.60;92.40;;;;;;5032629;28;20403;-76
2022/09/01 11:11:42;;;;;;;2.45;0.90;;;21.50;95.20;;;;;;5013587;28;20071;-76
2022/09/01 11:14:21;;;;;;;2.13;1.00;;;21.60;97.20;;;;;;5031103;28;20036;-76
2022/09/01 11:17:27;;;;;;;1.40;1.13;;;21.50;94.20;;;;;;5031120;28;20045;-77
2022/09/01 11:19:54;;;;;;;1.20;0.90;;;21.30;97.60;;;;;;5020731;28;20052;-76
2022/09/01 11:22:49;;;;;;;2.88;1.10;;;21.30;99.90;;;;;;5014972;28;20033;-79
2022/09/01 11:25:36;;;;;;;1.23;0.93;;;21.60;99.90;;;;;;4998303;28;20060;-77
2022/09/01 11:28:08;;;;;;;1.52;0.90;;;22.00;91.70;;;;;;5016077;28;20139;-77
2022/09/01 11:30:57;;;;;;;2.63;0.90;;;21.70;95.20;;;;;;5031850;28;20168;-77
2022/09/01 11:33:47;;;;;;;1.25;0.85;;;21.40;94.60;;;;;;5014946;28;20052;-81
2022/09/01 11:36:35;;;;;;;2.92;0.90;;;21.80;96.70;;;;;;5015966;28;20057;-76
2022/09/01 11:39:18;;;;;;;2.22;0.85;;;21.50;84.30;;;;;;5031723;28;20064;-78
2022/09/01 11:42:06;;;;;;;2.75;0.80;;;21.90;88.40;;;;;;5014988;28;20528;-77
2022/09/01 11:44:53;;;;;;;1.63;0.95;;;21.90;81.30;;;;;;5031275;28;20596;-77
2022/09/01 11:47:25;;;;;;;3.08;1.10;;;21.90;80.40;;;;;;5018630;28;20037;-76
2022/09/01 11:50:21;;;;;;;2.15;1.30;;;22.40;87.00;;;;;;5018964;28;20037;-77
2022/09/01 11:52:55;;;;;;;0.82;0.80;;;23.10;74.00;;;;;;5018685;28;20072;-76
2022/09/01 11:55:32;;;;;;;1.33;0.90;;;22.70;73.20;;;;;;5034463;28;20041;-77
2022/09/01 11:57:59;;;;;;;3.00;0.80;;;22.30;72.70;;;;;;5018584;28;20048;-77
2022/09/01 12:00:29;;;;;;;2.45;0.90;;;22.00;85.80;;;;;;5018228;28;20036;-77
2022/09/01 12:02:55;;;;;;;2.45;0.90;;;22.40;84.20;;;;;;5018732;28;20073;-79
2022/09/01 12:05:26;;;;;;;1.75;1.13;;;22.20;84.00;;;;;;5034779;28;20045;-77
2022/09/01 12:07:52;;;;;;;1.20;0.90;;;22.20;74.60;;;;;;5034898;28;20045;-74
2022/09/01 12:10:37;;;;;;;1.48;0.82;;;22.00;67.40;;;;;;5034739;28;20041;-76
2022/09/01 12:13:21;;;;;;;2.00;1.20;;;22.00;75.30;;;;;;5035112;28;20051;-75
2022/09/01 12:15:59;;;;;;;2.00;1.33;;;22.10;67.10;;;;;;5034632;28;20048;-76
2022/09/01 12:18:33;;;;;;;1.23;0.80;;;22.20;56.90;;;;;;5034670;28;20144;-78
2022/09/01 12:21:01;;;;;;;4.88;1.65;;;22.10;54.10;;;;;;5034904;28;20045;-76
2022/09/01 12:23:30;;;;;;;0.82;0.73;;;21.80;56.90;;;;;;5018200;28;20048;-76
2022/09/01 12:25:59;;;;;;;1.77;0.80;;;21.70;51.70;;;;;;5034817;28;20049;-76
2022/09/01 12:28:30;;;;;;;1.10;0.90;;;21.60;60.50;;;;;;5034652;28;20053;-78
2022/09/01 12:30:59;;;;;;;1.15;0.93;;;21.60;65.40;;;;;;5017644;28;20049;-78
2022/09/01 12:33:25;;;;;;;1.45;0.90;;;21.60;66.70;;;;;;5017665;28;20048;-77
2022/09/01 12:35:51;;;;;;;1.40;0.90;;;21.70;64.80;;;;;;5018080;28;20048;-77
2022/09/01 12:38:20;;;;;;;1.80;1.05;;;22.10;63.10;;;;;;5018042;28;20082;-78
2022/09/01 12:40:52;;;;;;;1.63;1.00;;;22.10;55.70;;;;;;5033807;28;20090;-76
2022/09/01 12:43:39;;;;;;;2.63;0.85;;;22.00;56.20;;;;;;5018054;28;20044;-77
2022/09/01 12:46:09;;;;;;;1.05;0.80;;;22.00;49.90;;;;;;5034539;28;20577;-79
2022/09/01 12:48:40;;;;;;;1.20;1.00;;;21.90;62.00;;;;;;5034306;28;20785;-76
2022/09/01 12:51:24;;;;;;;1.83;0.95;;;21.80;47.90;;;;;;5034113;28;20045;-76
2022/09/01 12:53:59;;;;;;;0.82;0.70;;;21.70;52.90;;;;;;5017727;28;20057;-77
2022/09/01 12:56:31;;;;;;;1.50;1.05;;;21.80;58.80;;;;;;5017262;28;20052;-76
2022/09/01 12:59:05;;;;;;;1.15;0.80;;;21.90;58.70;;;;;;5033121;28;20069;-79
2022/09/01 13:01:34;;;;;;;1.50;1.23;;;21.90;61.80;;;;;;5016833;28;20044;-77
2022/09/01 13:04:21;;;;;;;2.45;1.08;;;22.10;52.00;;;;;;5033777;28;20033;-77
2022/09/01 13:06:47;;;;;;;0.90;0.80;;;22.30;51.30;;;;;;5017172;28;20095;-75
2022/09/01 13:09:14;;;;;;;1.10;0.80;;;22.40;43.30;;;;;;5016819;28;20084;-78
2022/09/01 13:11:40;;;;;;;4.68;0.90;;;22.30;41.30;;;;;;5032853;28;20041;-77
2022/09/01 13:14:07;;;;;;;1.40;0.80;;;22.20;45.90;;;;;;5016965;28;20136;-78
2022/09/01 13:16:35;;;;;;;3.20;0.80;;;22.00;48.40;;;;;;5032470;28;20358;-79